Time;durP1;ratioP1;P1;durP2;ratioP2;P2;SDS_P1;SDS_P2;PMS_P1;PMS_P2;Temp;Humidity;BMP_temperature;BMP_pressure;BME280_temperature;BME280_humidity;BME280_pressure;Samples;Min_cycle;Max_cycle;Signal;HPM_P1;HPM_P2
2020/12/17 00:00:19;;;;;;;0.00;0.00;;;;;;;;;;4964532;28;21118;-65
2020/12/17 00:02:47;;;;;;;2.47;1.45;;;;;;;;;;4943546;28;20027;-65
2020/12/17 00:05:15;;;;;;;0.57;0.57;;;;;;;;;;4948867;28;20023;-65
2020/12/17 00:07:41;;;;;;;0.32;0.32;;;;;;;;;;4932287;28;20817;-65
2020/12/17 00:10:08;;;;;;;0.20;0.20;;;;;;;;;;4951916;28;20069;-65
2020/12/17 00:12:36;;;;;;;0.30;0.28;;;;;;;;;;4951053;28;20026;-65
2020/12/17 00:15:03;;;;;;;0.63;0.40;;;;;;;;;;4951385;28;20463;-65
2020/12/17 00:17:28;;;;;;;0.08;0.08;;;;;;;;;;4948336;28;20042;-65
2020/12/17 00:19:54;;;;;;;1.60;1.50;;;;;;;;;;4958508;28;20039;-64
2020/12/17 00:22:22;;;;;;;0.75;0.73;;;;;;;;;;4946529;28;20420;-65
2020/12/17 00:24:54;;;;;;;0.35;0.35;;;;;;;;;;4948367;28;20058;-64
2020/12/17 00:27:22;;;;;;;0.10;0.10;;;;;;;;;;4947320;28;20034;-65
2020/12/17 00:29:48;;;;;;;0.70;0.70;;;;;;;;;;4931375;28;20482;-65
2020/12/17 00:32:13;;;;;;;0.90;0.90;;;;;;;;;;4931169;28;20083;-65
2020/12/17 00:34:41;;;;;;;0.73;0.60;;;;;;;;;;4927126;28;20053;-66
2020/12/17 00:37:08;;;;;;;0.45;0.45;;;;;;;;;;4932601;28;20092;-65
2020/12/17 00:39:36;;;;;;;0.03;0.03;;;;;;;;;;4949437;28;20267;-65
2020/12/17 00:42:08;;;;;;;0.57;0.57;;;;;;;;;;4948953;28;20035;-65
2020/12/17 00:44:37;;;;;;;0.10;0.10;;;;;;;;;;4950565;28;20037;-65
2020/12/17 00:47:04;;;;;;;0.40;0.40;;;;;;;;;;4946361;28;20499;-64
2020/12/17 00:49:32;;;;;;;1.48;0.68;;;;;;;;;;4941910;28;20170;-65
2020/12/17 00:51:59;;;;;;;1.23;1.23;;;;;;;;;;4946772;28;20471;-64
2020/12/17 00:54:27;;;;;;;0.88;0.88;;;;;;;;;;4944536;28;20031;-64
2020/12/17 00:56:56;;;;;;;0.00;0.00;;;;;;;;;;4944763;28;20145;-65
2020/12/17 00:59:23;;;;;;;0.60;0.50;;;;;;;;;;4934227;28;20205;-64
2020/12/17 01:01:51;;;;;;;4.38;1.38;;;;;;;;;;4951610;28;20476;-64
2020/12/17 01:04:19;;;;;;;0.38;0.38;;;;;;;;;;4950992;28;20700;-64
2020/12/17 01:06:47;;;;;;;0.13;0.13;;;;;;;;;;4942473;28;20026;-65
2020/12/17 01:09:12;;;;;;;0.52;0.52;;;;;;;;;;4914850;28;20081;-65
2020/12/17 01:11:38;;;;;;;0.00;0.00;;;;;;;;;;4947247;28;20085;-65
2020/12/17 01:14:04;;;;;;;1.45;0.63;;;;;;;;;;4946700;28;20504;-66
2020/12/17 01:16:31;;;;;;;0.85;0.85;;;;;;;;;;4947887;28;20195;-65
2020/12/17 01:22:32;;;;;;;0.80;0.77;;;;;;;;;;4947085;28;20683;-66
2020/12/17 01:24:58;;;;;;;0.10;0.10;;;;;;;;;;4927147;28;20284;-66
2020/12/17 01:27:31;;;;;;;0.82;0.82;;;;;;;;;;4945806;28;20023;-65
2020/12/17 01:29:59;;;;;;;1.17;1.17;;;;;;;;;;4931107;28;20521;-65
2020/12/17 01:32:27;;;;;;;0.85;0.45;;;;;;;;;;4928376;28;20030;-66
2020/12/17 01:34:54;;;;;;;0.20;0.20;;;;;;;;;;4930598;28;20038;-64
2020/12/17 01:37:20;;;;;;;0.45;0.45;;;;;;;;;;4941900;28;20045;-66
2020/12/17 01:39:48;;;;;;;0.00;0.00;;;;;;;;;;4912110;28;20256;-66
2020/12/17 01:42:13;;;;;;;1.10;0.98;;;;;;;;;;4914631;28;20033;-66
2020/12/17 01:44:39;;;;;;;0.65;0.65;;;;;;;;;;4929696;28;20035;-66
2020/12/17 01:47:05;;;;;;;0.65;0.65;;;;;;;;;;4949540;28;20117;-67
2020/12/17 01:49:39;;;;;;;0.30;0.30;;;;;;;;;;4930476;28;20031;-67
2020/12/17 01:52:04;;;;;;;0.22;0.22;;;;;;;;;;4945550;28;20504;-68
2020/12/17 01:54:30;;;;;;;0.10;0.10;;;;;;;;;;4948156;28;20054;-69
2020/12/17 01:57:04;;;;;;;0.10;0.10;;;;;;;;;;4922897;28;20473;-68
2020/12/17 01:59:58;;;;;;;3.70;1.83;;;;;;;;;;4945961;28;20034;-68
2020/12/17 02:02:30;;;;;;;0.80;0.80;;;;;;;;;;4946826;28;20234;-67
2020/12/17 02:04:58;;;;;;;0.73;0.73;;;;;;;;;;4950353;28;20033;-67
2020/12/17 02:07:24;;;;;;;1.40;1.30;;;;;;;;;;4949375;28;20042;-66
2020/12/17 02:09:54;;;;;;;1.75;1.38;;;;;;;;;;4947377;28;20785;-68
2020/12/17 02:12:20;;;;;;;0.15;0.15;;;;;;;;;;4925330;28;20054;-67
2020/12/17 02:14:45;;;;;;;5.60;0.57;;;;;;;;;;4946735;28;20624;-67
2020/12/17 02:17:13;;;;;;;1.55;0.65;;;;;;;;;;4930444;28;20093;-67
2020/12/17 02:19:41;;;;;;;0.57;0.57;;;;;;;;;;4948539;28;20589;-67
2020/12/17 02:22:09;;;;;;;0.25;0.25;;;;;;;;;;4932581;28;20619;-67
2020/12/17 02:24:37;;;;;;;0.28;0.28;;;;;;;;;;4946894;28;20129;-66
2020/12/17 02:27:05;;;;;;;1.65;1.20;;;;;;;;;;4949938;28;20123;-68
2020/12/17 02:29:33;;;;;;;0.15;0.15;;;;;;;;;;4943947;28;20081;-67
2020/12/17 02:31:58;;;;;;;0.85;0.85;;;;;;;;;;4945612;28;21062;-66
2020/12/17 02:34:29;;;;;;;0.20;0.20;;;;;;;;;;4929192;28;20034;-67
2020/12/17 02:36:54;;;;;;;1.10;1.10;;;;;;;;;;4944441;28;20496;-65
2020/12/17 02:39:19;;;;;;;3.75;0.82;;;;;;;;;;4945370;28;20126;-66
2020/12/17 02:41:45;;;;;;;0.00;0.00;;;;;;;;;;4947181;28;20064;-66
2020/12/17 02:44:13;;;;;;;0.82;0.82;;;;;;;;;;4945594;28;20031;-67
2020/12/17 02:46:41;;;;;;;0.35;0.35;;;;;;;;;;4928807;28;20221;-67
2020/12/17 02:49:09;;;;;;;1.38;1.08;;;;;;;;;;4958263;28;20038;-67
2020/12/17 02:51:38;;;;;;;0.28;0.28;;;;;;;;;;4943616;28;20299;-65
2020/12/17 02:54:03;;;;;;;0.00;0.00;;;;;;;;;;4939120;28;20035;-65
2020/12/17 02:56:28;;;;;;;0.45;0.45;;;;;;;;;;4944597;28;20031;-65
2020/12/17 02:58:56;;;;;;;0.55;0.55;;;;;;;;;;4930492;28;20046;-65
2020/12/17 03:01:21;;;;;;;0.17;0.17;;;;;;;;;;4945844;28;20095;-66
2020/12/17 03:03:47;;;;;;;0.10;0.10;;;;;;;;;;4926298;28;20702;-66
2020/12/17 03:06:15;;;;;;;0.22;0.22;;;;;;;;;;4932309;28;20031;-66
2020/12/17 03:08:41;;;;;;;0.00;0.00;;;;;;;;;;4945467;28;20026;-65
2020/12/17 03:11:09;;;;;;;0.00;0.00;;;;;;;;;;4942558;28;20054;-66
2020/12/17 03:13:39;;;;;;;2.20;0.88;;;;;;;;;;4928344;28;20035;-66
2020/12/17 03:16:05;;;;;;;1.40;1.33;;;;;;;;;;4946486;28;20031;-65
2020/12/17 03:18:32;;;;;;;0.10;0.10;;;;;;;;;;4947398;28;20463;-65
2020/12/17 03:21:00;;;;;;;0.00;0.00;;;;;;;;;;4918746;28;20077;-66
2020/12/17 03:23:28;;;;;;;0.52;0.52;;;;;;;;;;4932292;28;20069;-66
2020/12/17 03:25:54;;;;;;;0.30;0.30;;;;;;;;;;4948418;28;20534;-65
2020/12/17 03:28:22;;;;;;;0.20;0.20;;;;;;;;;;4946055;28;20033;-67
2020/12/17 03:30:48;;;;;;;0.00;0.00;;;;;;;;;;4946575;28;20045;-66
2020/12/17 03:33:16;;;;;;;0.10;0.10;;;;;;;;;;4948532;28;20305;-66
2020/12/17 03:35:41;;;;;;;0.63;0.52;;;;;;;;;;4948858;28;20076;-66
2020/12/17 03:38:09;;;;;;;0.00;0.00;;;;;;;;;;4948698;28;20330;-66
2020/12/17 03:40:40;;;;;;;0.00;0.00;;;;;;;;;;4948964;28;20035;-67
2020/12/17 03:43:05;;;;;;;0.20;0.20;;;;;;;;;;4948228;28;20047;-65
2020/12/17 03:45:36;;;;;;;0.00;0.00;;;;;;;;;;4933040;28;20074;-65
2020/12/17 03:48:06;;;;;;;0.47;0.47;;;;;;;;;;4952441;28;20049;-65
2020/12/17 03:50:34;;;;;;;0.00;0.00;;;;;;;;;;4934358;28;20027;-64
2020/12/17 03:53:02;;;;;;;0.00;0.00;;;;;;;;;;4951283;28;20125;-64
2020/12/17 03:55:27;;;;;;;0.00;0.00;;;;;;;;;;4949781;28;20080;-66
2020/12/17 03:57:56;;;;;;;0.40;0.40;;;;;;;;;;4950723;28;20177;-66
2020/12/17 04:00:28;;;;;;;0.08;0.08;;;;;;;;;;4929245;28;20407;-64
2020/12/17 04:02:57;;;;;;;1.17;0.68;;;;;;;;;;4949442;28;20165;-66
2020/12/17 04:05:25;;;;;;;0.00;0.00;;;;;;;;;;4948815;28;20041;-66
2020/12/17 04:07:55;;;;;;;0.00;0.00;;;;;;;;;;4957418;28;20672;-66
2020/12/17 04:10:21;;;;;;;0.00;0.00;;;;;;;;;;4952611;28;20287;-66
2020/12/17 04:12:46;;;;;;;0.45;0.45;;;;;;;;;;4933502;28;20441;-66
2020/12/17 04:15:11;;;;;;;0.25;0.25;;;;;;;;;;4951004;28;20086;-64
2020/12/17 04:17:37;;;;;;;0.00;0.00;;;;;;;;;;4950248;28;20037;-65
2020/12/17 04:20:05;;;;;;;0.03;0.03;;;;;;;;;;4933398;28;20539;-65
2020/12/17 04:22:31;;;;;;;0.45;0.17;;;;;;;;;;4959553;28;20141;-64
2020/12/17 04:24:57;;;;;;;0.70;0.65;;;;;;;;;;4963763;28;20403;-64
2020/12/17 04:27:25;;;;;;;0.20;0.20;;;;;;;;;;4950277;28;20027;-63
2020/12/17 04:29:51;;;;;;;0.00;0.00;;;;;;;;;;4962237;28;20235;-65
2020/12/17 04:32:16;;;;;;;0.22;0.22;;;;;;;;;;4918273;28;20035;-63
2020/12/17 04:34:44;;;;;;;0.00;0.00;;;;;;;;;;4946841;28;20962;-65
2020/12/17 04:37:09;;;;;;;0.00;0.00;;;;;;;;;;4948779;28;20033;-63
2020/12/17 04:39:35;;;;;;;0.40;0.40;;;;;;;;;;4918072;28;20464;-65
2020/12/17 04:42:01;;;;;;;1.55;0.45;;;;;;;;;;4951396;28;20311;-65
2020/12/17 04:44:27;;;;;;;0.10;0.10;;;;;;;;;;4951452;28;20517;-63
2020/12/17 04:47:02;;;;;;;0.20;0.20;;;;;;;;;;4951998;28;20018;-64
2020/12/17 04:49:47;;;;;;;0.00;0.00;;;;;;;;;;4935074;28;20478;-63
2020/12/17 04:52:15;;;;;;;0.00;0.00;;;;;;;;;;4941482;28;20049;-62
2020/12/17 04:54:43;;;;;;;0.25;0.25;;;;;;;;;;4949717;28;20146;-64
2020/12/17 04:57:09;;;;;;;0.00;0.00;;;;;;;;;;4947567;28;20123;-62
2020/12/17 05:00:05;;;;;;;0.00;0.00;;;;;;;;;;4944769;28;20339;-63
2020/12/17 05:02:33;;;;;;;0.43;0.43;;;;;;;;;;4948325;28;20563;-63
2020/12/17 05:04:59;;;;;;;0.00;0.00;;;;;;;;;;4960120;28;20287;-62
2020/12/17 05:07:24;;;;;;;0.00;0.00;;;;;;;;;;4932009;28;20062;-62
2020/12/17 05:09:51;;;;;;;0.00;0.00;;;;;;;;;;4945926;28;20023;-61
2020/12/17 05:12:17;;;;;;;0.00;0.00;;;;;;;;;;4948710;28;20533;-62
2020/12/17 05:14:47;;;;;;;0.13;0.13;;;;;;;;;;4952537;28;20126;-61
2020/12/17 05:17:16;;;;;;;0.00;0.00;;;;;;;;;;4949638;28;20031;-62
2020/12/17 05:19:42;;;;;;;0.00;0.00;;;;;;;;;;4934780;28;21658;-63
2020/12/17 05:22:14;;;;;;;0.00;0.00;;;;;;;;;;4947270;28;20121;-62
2020/12/17 05:24:42;;;;;;;0.08;0.08;;;;;;;;;;4950941;28;20243;-64
2020/12/17 05:27:13;;;;;;;0.00;0.00;;;;;;;;;;4950959;28;20042;-63
2020/12/17 05:29:43;;;;;;;8.48;0.93;;;;;;;;;;4948553;28;20083;-63
2020/12/17 05:32:17;;;;;;;0.55;0.55;;;;;;;;;;4931480;28;20088;-63
2020/12/17 05:34:47;;;;;;;0.00;0.00;;;;;;;;;;4947674;28;20041;-62
2020/12/17 05:37:16;;;;;;;0.00;0.00;;;;;;;;;;4947715;28;20509;-62
2020/12/17 05:39:42;;;;;;;0.08;0.08;;;;;;;;;;4945052;28;20062;-62
2020/12/17 05:42:11;;;;;;;0.17;0.17;;;;;;;;;;4941341;28;20038;-63
2020/12/17 05:44:39;;;;;;;0.77;0.77;;;;;;;;;;4949654;28;20435;-61
2020/12/17 05:47:11;;;;;;;0.00;0.00;;;;;;;;;;4929604;28;20578;-63
2020/12/17 05:49:40;;;;;;;0.00;0.00;;;;;;;;;;4948264;28;20033;-63
2020/12/17 05:52:10;;;;;;;0.80;0.20;;;;;;;;;;4946284;28;20149;-62
2020/12/17 05:54:36;;;;;;;0.30;0.20;;;;;;;;;;4949852;28;20038;-62
2020/12/17 05:57:09;;;;;;;0.00;0.00;;;;;;;;;;4950072;28;20337;-63
2020/12/17 05:59:38;;;;;;;0.00;0.00;;;;;;;;;;4933293;28;20022;-63
2020/12/17 06:02:22;;;;;;;0.00;0.00;;;;;;;;;;4949209;28;20097;-62
2020/12/17 06:05:02;;;;;;;0.00;0.00;;;;;;;;;;4950826;28;20813;-62
2020/12/17 06:07:32;;;;;;;0.00;0.00;;;;;;;;;;4945467;28;20410;-61
2020/12/17 06:10:04;;;;;;;0.00;0.00;;;;;;;;;;4947209;28;20226;-61
2020/12/17 06:12:30;;;;;;;0.00;0.00;;;;;;;;;;4947156;28;20053;-61
2020/12/17 06:15:02;;;;;;;0.00;0.00;;;;;;;;;;4948732;28;20279;-62
2020/12/17 06:17:32;;;;;;;0.00;0.00;;;;;;;;;;4947667;28;20121;-62
2020/12/17 06:20:03;;;;;;;0.00;0.00;;;;;;;;;;4926364;28;20086;-60
2020/12/17 06:22:29;;;;;;;0.52;0.52;;;;;;;;;;4945510;28;20285;-62
2020/12/17 06:24:54;;;;;;;0.00;0.00;;;;;;;;;;4948201;28;20754;-62
2020/12/17 06:27:21;;;;;;;0.00;0.00;;;;;;;;;;4932053;28;20042;-61
2020/12/17 06:29:55;;;;;;;0.70;0.65;;;;;;;;;;4946479;28;20035;-61
2020/12/17 06:32:27;;;;;;;1.00;0.90;;;;;;;;;;4949284;28;20036;-60
2020/12/17 06:34:53;;;;;;;0.00;0.00;;;;;;;;;;4948828;28;20492;-60
2020/12/17 06:37:19;;;;;;;0.20;0.20;;;;;;;;;;4948763;28;20043;-60
2020/12/17 06:39:45;;;;;;;0.00;0.00;;;;;;;;;;4950081;28;20235;-61
2020/12/17 06:42:30;;;;;;;0.00;0.00;;;;;;;;;;4949829;28;20031;-60
2020/12/17 06:45:01;;;;;;;0.22;0.22;;;;;;;;;;4948675;28;20637;-60
2020/12/17 06:47:27;;;;;;;0.00;0.00;;;;;;;;;;4950284;28;21746;-61
2020/12/17 06:50:13;;;;;;;0.00;0.00;;;;;;;;;;4931327;28;20378;-61
2020/12/17 06:53:00;;;;;;;0.00;0.00;;;;;;;;;;4951127;28;20034;-60
2020/12/17 06:55:37;;;;;;;0.00;0.00;;;;;;;;;;4946890;28;20034;-60
2020/12/17 06:58:05;;;;;;;0.00;0.00;;;;;;;;;;4947302;28;20630;-60
2020/12/17 07:00:33;;;;;;;0.10;0.10;;;;;;;;;;4918451;28;20043;-61
2020/12/17 07:03:01;;;;;;;0.00;0.00;;;;;;;;;;4947424;28;20669;-61
2020/12/17 07:05:36;;;;;;;0.00;0.00;;;;;;;;;;4934572;28;20038;-61
2020/12/17 07:08:02;;;;;;;0.00;0.00;;;;;;;;;;4950024;28;20018;-61
2020/12/17 07:10:29;;;;;;;0.00;0.00;;;;;;;;;;4950835;28;20037;-61
2020/12/17 07:13:00;;;;;;;0.10;0.10;;;;;;;;;;4952565;28;20423;-60
2020/12/17 07:15:31;;;;;;;0.00;0.00;;;;;;;;;;4954004;28;20195;-61
2020/12/17 07:18:15;;;;;;;0.00;0.00;;;;;;;;;;4940181;28;20416;-61
2020/12/17 07:20:46;;;;;;;0.28;0.28;;;;;;;;;;4950393;28;20062;-61
2020/12/17 07:23:14;;;;;;;0.17;0.17;;;;;;;;;;4951123;28;20126;-61
2020/12/17 07:25:41;;;;;;;0.00;0.00;;;;;;;;;;4939600;28;20050;-61
2020/12/17 07:28:12;;;;;;;0.08;0.08;;;;;;;;;;4935869;28;21509;-61
2020/12/17 07:30:50;;;;;;;0.00;0.00;;;;;;;;;;4942070;28;20043;-63
2020/12/17 07:33:31;;;;;;;0.00;0.00;;;;;;;;;;4945801;28;20278;-61
2020/12/17 07:36:01;;;;;;;0.00;0.00;;;;;;;;;;4949837;28;21719;-61
2020/12/17 07:38:26;;;;;;;0.10;0.10;;;;;;;;;;4937551;28;20039;-61
2020/12/17 07:40:56;;;;;;;0.13;0.13;;;;;;;;;;4948002;28;20026;-61
2020/12/17 07:43:24;;;;;;;0.00;0.00;;;;;;;;;;4950627;28;20129;-61
2020/12/17 07:45:52;;;;;;;0.00;0.00;;;;;;;;;;4929010;28;20027;-61
2020/12/17 07:48:39;;;;;;;0.25;0.25;;;;;;;;;;4954468;28;20030;-61
2020/12/17 07:51:08;;;;;;;0.08;0.08;;;;;;;;;;4942415;28;20030;-61
2020/12/17 07:53:34;;;;;;;0.00;0.00;;;;;;;;;;4951039;28;20046;-60
2020/12/17 07:56:07;;;;;;;0.00;0.00;;;;;;;;;;4953668;28;20640;-61
2020/12/17 07:58:36;;;;;;;0.00;0.00;;;;;;;;;;4950031;28;20336;-61
2020/12/17 08:01:04;;;;;;;0.00;0.00;;;;;;;;;;4953081;28;20034;-61
2020/12/17 08:03:42;;;;;;;0.00;0.00;;;;;;;;;;4968495;28;21809;-60
2020/12/17 08:06:08;;;;;;;0.47;0.47;;;;;;;;;;4944401;28;20038;-59
2020/12/17 08:08:34;;;;;;;0.00;0.00;;;;;;;;;;4936543;28;20030;-60
2020/12/17 08:11:08;;;;;;;0.57;0.57;;;;;;;;;;4936077;28;21095;-60
2020/12/17 08:13:37;;;;;;;0.00;0.00;;;;;;;;;;4934993;28;20034;-60
2020/12/17 08:16:08;;;;;;;0.00;0.00;;;;;;;;;;4950479;28;20355;-61
2020/12/17 08:18:37;;;;;;;0.00;0.00;;;;;;;;;;4951349;28;20050;-61
2020/12/17 08:21:05;;;;;;;0.10;0.10;;;;;;;;;;4947453;28;20229;-61
2020/12/17 08:23:32;;;;;;;0.00;0.00;;;;;;;;;;4952661;28;20459;-61
2020/12/17 08:26:01;;;;;;;0.00;0.00;;;;;;;;;;4952140;28;20030;-61
2020/12/17 08:28:37;;;;;;;0.00;0.00;;;;;;;;;;4947827;28;20114;-61
2020/12/17 08:31:05;;;;;;;0.00;0.00;;;;;;;;;;4933893;28;20987;-61
2020/12/17 08:33:41;;;;;;;0.00;0.00;;;;;;;;;;4951845;28;20543;-60
2020/12/17 08:36:15;;;;;;;0.10;0.10;;;;;;;;;;4951980;28;20061;-61
2020/12/17 08:38:51;;;;;;;0.00;0.00;;;;;;;;;;4949909;28;20154;-60
2020/12/17 08:41:21;;;;;;;3.10;0.98;;;;;;;;;;4946265;28;20034;-60
2020/12/17 08:43:47;;;;;;;0.00;0.00;;;;;;;;;;4950911;28;20031;-60
2020/12/17 08:46:16;;;;;;;0.00;0.00;;;;;;;;;;4951685;28;20109;-60
2020/12/17 08:48:45;;;;;;;0.00;0.00;;;;;;;;;;4942409;28;20492;-60
2020/12/17 08:51:12;;;;;;;0.00;0.00;;;;;;;;;;4945026;28;20433;-61
2020/12/17 08:53:41;;;;;;;0.03;0.03;;;;;;;;;;4950117;28;20446;-61
2020/12/17 08:56:12;;;;;;;0.35;0.35;;;;;;;;;;4951026;28;20234;-62
2020/12/17 08:58:46;;;;;;;0.00;0.00;;;;;;;;;;4947860;28;20413;-61
2020/12/17 09:01:28;;;;;;;0.28;0.28;;;;;;;;;;4948665;28;20033;-63
2020/12/17 09:03:54;;;;;;;0.00;0.00;;;;;;;;;;4944871;28;20034;-61
2020/12/17 09:06:26;;;;;;;0.00;0.00;;;;;;;;;;4951726;28;20482;-61
2020/12/17 09:08:52;;;;;;;0.00;0.00;;;;;;;;;;4946429;28;20062;-61
2020/12/17 09:11:28;;;;;;;0.00;0.00;;;;;;;;;;4948846;28;20030;-61
2020/12/17 09:14:00;;;;;;;0.95;0.47;;;;;;;;;;4944897;28;20054;-62
2020/12/17 09:16:29;;;;;;;0.00;0.00;;;;;;;;;;4944126;28;20803;-63
2020/12/17 09:18:55;;;;;;;0.10;0.10;;;;;;;;;;4943064;28;20564;-62
2020/12/17 09:21:22;;;;;;;0.00;0.00;;;;;;;;;;4948070;28;20026;-62
2020/12/17 09:24:00;;;;;;;0.00;0.00;;;;;;;;;;4945041;28;20035;-62
2020/12/17 09:26:25;;;;;;;0.00;0.00;;;;;;;;;;4945946;28;20041;-62
2020/12/17 09:28:58;;;;;;;0.00;0.00;;;;;;;;;;4949975;28;20093;-62
2020/12/17 09:31:25;;;;;;;0.00;0.00;;;;;;;;;;4952547;28;20045;-61
2020/12/17 09:34:00;;;;;;;0.00;0.00;;;;;;;;;;4948273;28;20034;-63
2020/12/17 09:36:26;;;;;;;0.20;0.20;;;;;;;;;;4963473;28;20037;-61
2020/12/17 09:38:57;;;;;;;0.00;0.00;;;;;;;;;;4951539;28;20038;-62
2020/12/17 09:41:28;;;;;;;1.77;0.70;;;;;;;;;;4930224;28;20060;-63
2020/12/17 09:43:53;;;;;;;0.10;0.10;;;;;;;;;;4951831;28;20483;-62
2020/12/17 09:46:19;;;;;;;1.38;0.40;;;;;;;;;;4945904;28;20061;-62
2020/12/17 09:48:47;;;;;;;0.03;0.03;;;;;;;;;;4949097;28;20726;-62
2020/12/17 09:51:19;;;;;;;0.00;0.00;;;;;;;;;;4950365;28;20074;-62
2020/12/17 09:53:47;;;;;;;0.00;0.00;;;;;;;;;;4948498;28;20045;-62
2020/12/17 09:56:13;;;;;;;0.70;0.45;;;;;;;;;;4929682;28;21957;-62
2020/12/17 09:58:44;;;;;;;0.00;0.00;;;;;;;;;;4947164;28;20411;-64
2020/12/17 10:01:15;;;;;;;0.00;0.00;;;;;;;;;;4931957;28;20904;-64
2020/12/17 10:03:42;;;;;;;0.00;0.00;;;;;;;;;;4950394;28;20034;-63
2020/12/17 10:06:10;;;;;;;0.13;0.13;;;;;;;;;;4939549;28;20301;-62
2020/12/17 10:08:38;;;;;;;0.25;0.25;;;;;;;;;;4946906;28;20732;-63
2020/12/17 10:11:07;;;;;;;0.10;0.10;;;;;;;;;;4943784;28;20615;-63
2020/12/17 10:13:36;;;;;;;0.10;0.10;;;;;;;;;;4948556;28;20093;-64
2020/12/17 10:16:04;;;;;;;0.10;0.10;;;;;;;;;;4948189;28;20596;-61
2020/12/17 10:18:31;;;;;;;0.00;0.00;;;;;;;;;;4947493;28;20498;-64
2020/12/17 10:20:59;;;;;;;0.15;0.15;;;;;;;;;;4945447;28;20022;-63
2020/12/17 10:23:28;;;;;;;0.00;0.00;;;;;;;;;;4942785;28;20019;-63
2020/12/17 10:25:55;;;;;;;0.10;0.10;;;;;;;;;;4942882;28;20485;-62
2020/12/17 10:28:21;;;;;;;0.68;0.40;;;;;;;;;;4932255;28;20046;-63
2020/12/17 10:30:47;;;;;;;0.13;0.13;;;;;;;;;;4955414;28;20066;-61
2020/12/17 10:33:12;;;;;;;0.32;0.32;;;;;;;;;;4944849;28;20070;-63
2020/12/17 10:35:37;;;;;;;0.20;0.20;;;;;;;;;;4932442;28;20120;-62
2020/12/17 10:38:10;;;;;;;0.17;0.17;;;;;;;;;;4945825;28;20739;-64
2020/12/17 10:40:36;;;;;;;0.98;0.43;;;;;;;;;;4949132;28;20058;-63
2020/12/17 10:43:03;;;;;;;0.45;0.45;;;;;;;;;;4945294;28;20142;-62
2020/12/17 10:45:31;;;;;;;0.00;0.00;;;;;;;;;;4947456;28;20146;-63
2020/12/17 10:47:59;;;;;;;0.00;0.00;;;;;;;;;;4947333;28;20097;-65
2020/12/17 10:50:29;;;;;;;0.13;0.13;;;;;;;;;;4931657;28;20307;-65
2020/12/17 10:52:57;;;;;;;0.13;0.13;;;;;;;;;;4932393;28;20049;-64
2020/12/17 10:55:25;;;;;;;0.10;0.10;;;;;;;;;;4932624;28;20039;-63
2020/12/17 10:57:55;;;;;;;1.02;0.85;;;;;;;;;;4928913;28;20030;-64
2020/12/17 11:00:20;;;;;;;0.10;0.10;;;;;;;;;;4947581;28;20019;-65
2020/12/17 11:02:48;;;;;;;0.60;0.52;;;;;;;;;;4943418;28;20094;-64
2020/12/17 11:05:17;;;;;;;0.20;0.20;;;;;;;;;;4932584;28;20038;-64
2020/12/17 11:07:42;;;;;;;0.10;0.10;;;;;;;;;;4941487;28;20038;-64
2020/12/17 11:10:09;;;;;;;0.20;0.13;;;;;;;;;;4940447;28;20030;-64
2020/12/17 11:12:40;;;;;;;0.20;0.20;;;;;;;;;;4947856;28;20038;-64
2020/12/17 11:15:05;;;;;;;1.77;0.47;;;;;;;;;;4959294;28;20037;-66
2020/12/17 11:17:31;;;;;;;0.52;0.52;;;;;;;;;;4932159;28;20034;-65
2020/12/17 11:20:00;;;;;;;0.00;0.00;;;;;;;;;;4933737;28;20043;-65
2020/12/17 11:22:25;;;;;;;0.00;0.00;;;;;;;;;;4914802;28;20090;-67
2020/12/17 11:24:51;;;;;;;0.32;0.32;;;;;;;;;;4948826;28;20491;-66
2020/12/17 11:27:19;;;;;;;0.20;0.20;;;;;;;;;;4934393;28;20034;-67
2020/12/17 11:29:47;;;;;;;0.20;0.20;;;;;;;;;;4949586;28;20034;-68
2020/12/17 11:32:18;;;;;;;0.40;0.40;;;;;;;;;;4948403;28;20056;-66
2020/12/17 11:34:46;;;;;;;0.08;0.08;;;;;;;;;;4929855;28;20450;-66
2020/12/17 11:37:14;;;;;;;0.13;0.13;;;;;;;;;;4948032;28;20022;-67
2020/12/17 11:39:40;;;;;;;0.03;0.03;;;;;;;;;;4941283;28;20157;-66
2020/12/17 11:42:06;;;;;;;0.08;0.08;;;;;;;;;;4949844;28;20077;-67
2020/12/17 11:44:32;;;;;;;0.25;0.25;;;;;;;;;;4946676;28;20166;-66
2020/12/17 11:47:00;;;;;;;0.50;0.50;;;;;;;;;;4948176;28;20037;-66
2020/12/17 11:49:28;;;;;;;0.20;0.20;;;;;;;;;;4928937;28;20354;-67
2020/12/17 11:51:55;;;;;;;0.35;0.35;;;;;;;;;;4952265;28;20066;-66
2020/12/17 11:54:21;;;;;;;0.10;0.10;;;;;;;;;;4934830;28;20126;-67
2020/12/17 11:56:50;;;;;;;0.17;0.17;;;;;;;;;;4952169;28;20062;-68
2020/12/17 11:59:20;;;;;;;0.10;0.10;;;;;;;;;;4952301;28;20043;-67
2020/12/17 12:01:47;;;;;;;0.10;0.10;;;;;;;;;;4948084;28;20039;-67
2020/12/17 12:04:14;;;;;;;0.00;0.00;;;;;;;;;;4951266;28;20043;-68
2020/12/17 12:06:40;;;;;;;1.38;0.60;;;;;;;;;;4931741;28;20042;-67
2020/12/17 12:09:09;;;;;;;0.13;0.13;;;;;;;;;;4950891;28;20035;-67
2020/12/17 12:15:32;;;;;;;0.00;0.00;;;;;;;;;;4950282;28;20115;-68
2020/12/17 12:17:57;;;;;;;0.40;0.40;;;;;;;;;;4935109;28;20736;-67
2020/12/17 12:20:43;;;;;;;1.45;0.73;;;;;;;;;;4938164;28;20058;-67
2020/12/17 12:23:15;;;;;;;0.00;0.00;;;;;;;;;;4945479;28;20541;-65
2020/12/17 12:25:43;;;;;;;0.00;0.00;;;;;;;;;;4949898;28;21864;-66
2020/12/17 12:28:09;;;;;;;0.00;0.00;;;;;;;;;;4948792;28;20561;-68
2020/12/17 12:30:35;;;;;;;0.28;0.28;;;;;;;;;;4951548;28;20041;-69
2020/12/17 12:33:00;;;;;;;0.20;0.20;;;;;;;;;;4951112;28;20019;-66
2020/12/17 12:35:30;;;;;;;0.28;0.28;;;;;;;;;;4941295;28;20034;-68
2020/12/17 12:37:56;;;;;;;0.38;0.38;;;;;;;;;;4940008;28;20299;-67
2020/12/17 12:40:23;;;;;;;0.00;0.00;;;;;;;;;;4939135;28;20030;-67
2020/12/17 12:42:54;;;;;;;0.10;0.10;;;;;;;;;;4951167;28;20295;-68
2020/12/17 12:45:20;;;;;;;0.10;0.10;;;;;;;;;;4951276;28;20070;-67
2020/12/17 12:47:45;;;;;;;0.08;0.08;;;;;;;;;;4941718;28;20206;-67
2020/12/17 12:50:11;;;;;;;0.00;0.00;;;;;;;;;;4921839;28;20045;-68
2020/12/17 12:52:37;;;;;;;0.00;0.00;;;;;;;;;;4933144;28;20046;-67
2020/12/17 12:55:04;;;;;;;0.15;0.15;;;;;;;;;;4950472;28;20051;-68
2020/12/17 12:57:33;;;;;;;0.70;0.28;;;;;;;;;;4948139;28;20043;-68
2020/12/17 12:59:59;;;;;;;0.25;0.25;;;;;;;;;;4941347;28;20160;-67
2020/12/17 13:02:24;;;;;;;0.15;0.15;;;;;;;;;;4918712;28;20650;-67
2020/12/17 13:04:49;;;;;;;0.00;0.00;;;;;;;;;;4942048;28;20038;-68
2020/12/17 13:07:18;;;;;;;0.00;0.00;;;;;;;;;;4932482;28;20052;-69
2020/12/17 13:10:02;;;;;;;;;;;;;;;;;;;;;
2020/12/17 13:12:33;;;;;;;0.00;0.00;;;;;;;;;;4953513;28;20064;-68
2020/12/17 13:14:59;;;;;;;0.28;0.20;;;;;;;;;;4940741;28;20039;-67
2020/12/17 13:17:27;;;;;;;0.00;0.00;;;;;;;;;;4943068;28;20068;-66
2020/12/17 13:19:53;;;;;;;0.00;0.00;;;;;;;;;;4964514;28;20506;-68
2020/12/17 13:22:18;;;;;;;0.13;0.13;;;;;;;;;;4931787;28;20054;-66
2020/12/17 13:24:47;;;;;;;0.05;0.05;;;;;;;;;;4951467;28;20055;-68
2020/12/17 13:27:15;;;;;;;0.17;0.17;;;;;;;;;;4951272;28;20037;-69
2020/12/17 13:29:45;;;;;;;0.00;0.00;;;;;;;;;;4913226;28;20084;-67
2020/12/17 13:32:16;;;;;;;0.00;0.00;;;;;;;;;;4934134;28;20097;-68
2020/12/17 13:34:41;;;;;;;0.05;0.05;;;;;;;;;;4950392;28;20481;-68
2020/12/17 13:37:09;;;;;;;0.15;0.15;;;;;;;;;;4927754;28;20344;-67
2020/12/17 13:39:37;;;;;;;0.20;0.20;;;;;;;;;;4934138;28;20035;-67
2020/12/17 13:42:07;;;;;;;0.00;0.00;;;;;;;;;;4932869;28;20126;-68
2020/12/17 13:44:35;;;;;;;0.03;0.03;;;;;;;;;;4950422;28;20120;-67
2020/12/17 13:47:03;;;;;;;0.15;0.15;;;;;;;;;;4947854;28;20487;-67
2020/12/17 13:49:35;;;;;;;0.68;0.68;;;;;;;;;;4950027;28;20434;-65
2020/12/17 13:52:07;;;;;;;0.00;0.00;;;;;;;;;;4949549;28;20034;-68
2020/12/17 13:54:35;;;;;;;0.00;0.00;;;;;;;;;;4949246;28;20972;-66
2020/12/17 13:57:02;;;;;;;0.00;0.00;;;;;;;;;;4949239;28;20034;-69
2020/12/17 13:59:33;;;;;;;0.00;0.00;;;;;;;;;;4949207;28;20027;-66
2020/12/17 14:02:03;;;;;;;0.00;0.00;;;;;;;;;;4943997;28;20152;-66
2020/12/17 14:04:31;;;;;;;0.35;0.35;;;;;;;;;;4949502;28;20030;-64
2020/12/17 14:07:02;;;;;;;1.20;0.50;;;;;;;;;;4925564;28;20031;-66
2020/12/17 14:09:27;;;;;;;0.10;0.10;;;;;;;;;;4932649;28;20074;-68
2020/12/17 14:11:56;;;;;;;0.00;0.00;;;;;;;;;;4951054;28;20038;-67
2020/12/17 14:14:26;;;;;;;0.00;0.00;;;;;;;;;;4948140;28;20109;-67
2020/12/17 14:16:52;;;;;;;0.30;0.30;;;;;;;;;;4946640;28;20502;-67
2020/12/17 14:19:20;;;;;;;4.07;1.38;;;;;;;;;;4951122;28;20026;-69
2020/12/17 14:21:46;;;;;;;0.08;0.08;;;;;;;;;;4950120;28;20658;-67
2020/12/17 14:24:11;;;;;;;0.00;0.00;;;;;;;;;;4950595;28;20131;-67
2020/12/17 14:26:37;;;;;;;0.00;0.00;;;;;;;;;;4949711;28;20042;-67
2020/12/17 14:29:03;;;;;;;0.00;0.00;;;;;;;;;;4949746;28;20041;-68
2020/12/17 14:31:28;;;;;;;0.00;0.00;;;;;;;;;;4948917;28;20034;-67
2020/12/17 14:33:56;;;;;;;0.00;0.00;;;;;;;;;;4932940;28;20475;-66
2020/12/17 14:36:22;;;;;;;0.00;0.00;;;;;;;;;;4924477;28;20056;-66
2020/12/17 14:38:48;;;;;;;0.35;0.35;;;;;;;;;;4948815;28;20122;-66
2020/12/17 14:41:21;;;;;;;1.48;0.80;;;;;;;;;;4945209;28;20052;-66
2020/12/17 14:43:47;;;;;;;0.20;0.20;;;;;;;;;;4948619;28;20121;-66
2020/12/17 14:46:13;;;;;;;0.00;0.00;;;;;;;;;;4948104;28;20031;-66
2020/12/17 14:48:39;;;;;;;0.38;0.30;;;;;;;;;;4946815;28;20042;-67
2020/12/17 14:51:16;;;;;;;0.95;0.70;;;;;;;;;;4930304;28;20129;-67
2020/12/17 14:53:42;;;;;;;0.25;0.25;;;;;;;;;;4933184;28;20461;-69
2020/12/17 14:56:08;;;;;;;0.00;0.00;;;;;;;;;;4960493;28;20034;-67
2020/12/17 14:58:37;;;;;;;0.08;0.08;;;;;;;;;;4953806;28;20617;-67